createdAt,value
2023-02-07T00:01:30.069Z,2.34
2023-02-07T00:03:58.874Z,2.42
2023-02-07T00:06:30.972Z,2.40
2023-02-07T00:09:04.166Z,2.37
2023-02-07T00:11:31.575Z,2.39
2023-02-07T00:14:00.018Z,2.43
2023-02-07T00:16:28.348Z,2.39
2023-02-07T00:18:59.762Z,2.37
2023-02-07T00:21:28.966Z,2.25
2023-02-07T00:23:56.629Z,2.14
2023-02-07T00:26:26.198Z,2.14
2023-02-07T00:28:55.283Z,2.13
2023-02-07T00:31:27.105Z,2.11
2023-02-07T00:33:57.987Z,2.17
2023-02-07T00:36:27.114Z,2.11
2023-02-07T00:39:08.827Z,2.05
2023-02-07T00:41:36.213Z,2.07
2023-02-07T00:44:03.887Z,2.04
2023-02-07T00:46:32.586Z,2.06
2023-02-07T00:48:59.975Z,2.10
2023-02-07T00:51:28.459Z,2.07
2023-02-07T00:54:14.439Z,2.06
2023-02-07T00:56:41.812Z,2.03
2023-02-07T00:59:09.773Z,2.06
2023-02-07T01:01:37.172Z,2.10
2023-02-07T01:04:04.690Z,2.14
2023-02-07T01:06:34.301Z,2.10
2023-02-07T01:09:02.808Z,1.98
2023-02-07T01:11:30.739Z,1.99
2023-02-07T01:14:01.178Z,2.06
2023-02-07T01:16:35.487Z,1.95
2023-02-07T01:19:07.886Z,1.87
2023-02-07T01:21:35.737Z,1.86
2023-02-07T01:24:05.816Z,1.87
2023-02-07T01:26:35.372Z,1.83
2023-02-07T01:29:03.054Z,1.83
2023-02-07T01:31:31.011Z,1.91
2023-02-07T01:34:00.138Z,1.80
2023-02-07T01:36:29.524Z,1.79
2023-02-07T01:38:57.511Z,1.71
2023-02-07T01:41:27.266Z,1.84
2023-02-07T01:43:58.399Z,1.73
2023-02-07T01:46:26.902Z,1.69
2023-02-07T01:48:58.211Z,1.68
2023-02-07T01:51:28.780Z,1.75
2023-02-07T01:54:02.075Z,1.65
2023-02-07T01:56:32.214Z,1.67
2023-02-07T01:59:04.385Z,1.66
2023-02-07T02:01:31.848Z,1.69
2023-02-07T02:03:59.286Z,1.66
2023-02-07T02:06:31.193Z,1.60
2023-02-07T02:09:00.889Z,1.55
2023-02-07T02:11:42.992Z,1.51
2023-02-07T02:14:10.290Z,1.60
2023-02-07T02:17:01.759Z,1.45
2023-02-07T02:19:44.766Z,1.60
2023-02-07T02:22:29.139Z,1.49
2023-02-07T02:25:44.135Z,1.65
2023-02-07T02:28:20.402Z,1.53
2023-02-07T02:30:56.728Z,1.48
2023-02-07T02:33:56.499Z,1.48
2023-02-07T02:36:57.946Z,1.38
2023-02-07T02:39:36.099Z,1.56
2023-02-07T02:42:16.750Z,1.67
2023-02-07T02:44:53.418Z,1.67
2023-02-07T02:47:22.364Z,1.77
2023-02-07T02:49:50.488Z,1.78
2023-02-07T02:52:18.461Z,1.62
2023-02-07T02:54:45.818Z,1.53
2023-02-07T02:57:41.384Z,1.67
2023-02-07T03:00:17.669Z,1.56
2023-02-07T03:03:04.405Z,1.38
2023-02-07T03:05:39.747Z,1.41
2023-02-07T03:08:37.104Z,1.34
2023-02-07T03:11:22.807Z,1.34
2023-02-07T03:14:08.622Z,1.23
2023-02-07T03:17:17.104Z,1.23
2023-02-07T03:20:13.267Z,0.93
2023-02-07T03:22:43.740Z,0.84
2023-02-07T03:25:14.129Z,0.83
2023-02-07T03:27:42.541Z,0.79
2023-02-07T03:30:13.383Z,0.83
2023-02-07T03:32:44.697Z,0.80
2023-02-07T03:35:20.943Z,0.84
2023-02-07T03:37:53.516Z,0.77
2023-02-07T03:40:21.593Z,0.99
2023-02-07T03:43:00.076Z,1.13
2023-02-07T03:45:27.705Z,1.20
2023-02-07T03:47:55.123Z,1.08
2023-02-07T03:50:22.659Z,1.16
2023-02-07T03:52:50.087Z,1.21
2023-02-07T03:55:17.870Z,1.05
2023-02-07T03:57:45.324Z,0.96
2023-02-07T04:00:13.731Z,0.83
2023-02-07T04:02:41.391Z,1.04
2023-02-07T04:05:09.356Z,0.99
2023-02-07T04:07:37.001Z,1.00
2023-02-07T04:10:05.630Z,0.80
2023-02-07T04:12:33.297Z,0.79
2023-02-07T04:15:02.547Z,0.81
2023-02-07T04:17:31.823Z,0.73
2023-02-07T04:20:01.692Z,0.68
2023-02-07T04:22:29.881Z,0.60
2023-02-07T04:24:57.361Z,0.62
2023-02-07T04:27:25.280Z,0.69
2023-02-07T04:29:52.803Z,0.66
2023-02-07T04:32:20.388Z,0.64
2023-02-07T04:34:47.888Z,0.66
2023-02-07T04:37:15.272Z,0.72
2023-02-07T04:39:43.115Z,0.69
2023-02-07T04:42:10.618Z,0.81
2023-02-07T04:44:38.103Z,0.77
2023-02-07T04:47:05.682Z,0.73
2023-02-07T04:49:34.474Z,0.73
2023-02-07T04:52:02.304Z,0.68
2023-02-07T04:54:29.698Z,0.77
2023-02-07T04:56:57.093Z,0.72
2023-02-07T04:59:24.673Z,0.67
2023-02-07T05:01:52.260Z,0.49
2023-02-07T05:04:19.698Z,0.57
2023-02-07T05:06:47.284Z,0.57
2023-02-07T05:09:14.865Z,0.57
2023-02-07T05:11:42.395Z,0.41
2023-02-07T05:14:09.784Z,0.46
2023-02-07T05:16:37.270Z,0.35
2023-02-07T05:19:04.994Z,0.36
2023-02-07T05:21:32.876Z,0.49
2023-02-07T05:24:00.420Z,0.31
2023-02-07T05:26:27.768Z,0.27
2023-02-07T05:28:55.210Z,0.23
2023-02-07T05:31:42.774Z,0.16
2023-02-07T05:34:10.450Z,0.23
2023-02-07T05:36:38.086Z,0.02
2023-02-07T05:39:05.598Z,0.20
2023-02-07T05:41:32.959Z,0.26
2023-02-07T05:44:00.539Z,0.25
2023-02-07T05:46:28.038Z,0.29
2023-02-07T05:48:55.480Z,0.28
2023-02-07T05:51:23.021Z,0.28
2023-02-07T05:53:50.372Z,0.30
2023-02-07T05:56:17.704Z,0.12
2023-02-07T05:58:45.022Z,0.05
2023-02-07T06:01:12.599Z,-0.03
2023-02-07T06:03:40.176Z,-0.03
2023-02-07T06:06:07.819Z,-0.07
2023-02-07T06:08:35.340Z,-0.23
2023-02-07T06:11:02.780Z,-0.19
2023-02-07T06:13:30.377Z,-0.25
2023-02-07T06:15:58.008Z,-0.20
2023-02-07T06:18:25.619Z,0.00
2023-02-07T06:20:53.171Z,-0.16
2023-02-07T06:23:23.055Z,-0.19
2023-02-07T06:25:50.595Z,-0.19
2023-02-07T06:28:18.261Z,-0.28
2023-02-07T06:30:46.074Z,-0.25
2023-02-07T06:33:13.489Z,-0.53
2023-02-07T06:35:47.182Z,-0.51
2023-02-07T06:38:15.864Z,-0.19
2023-02-07T06:40:43.902Z,-0.27
2023-02-07T06:43:13.196Z,-0.51
2023-02-07T06:45:40.928Z,-0.45
2023-02-07T06:48:11.517Z,-0.48
2023-02-07T06:50:39.051Z,-0.42
2023-02-07T06:53:06.469Z,-0.35
2023-02-07T06:55:38.695Z,-0.20
2023-02-07T06:58:07.389Z,-0.11
2023-02-07T07:00:35.366Z,-0.23
2023-02-07T07:03:02.993Z,-0.43
2023-02-07T07:05:33.635Z,-0.30
2023-02-07T07:08:01.570Z,-0.18
2023-02-07T07:10:29.096Z,-0.10
2023-02-07T07:12:56.718Z,-0.18
2023-02-07T07:15:24.071Z,-0.14
2023-02-07T07:17:51.731Z,-0.07
2023-02-07T07:20:19.435Z,-0.13
2023-02-07T07:22:48.060Z,0.15
2023-02-07T07:25:15.419Z,0.31
2023-02-07T07:27:42.681Z,0.03
2023-02-07T07:30:10.946Z,0.03
2023-02-07T07:32:38.444Z,0.10
2023-02-07T07:35:06.606Z,0.34
2023-02-07T07:37:34.023Z,0.19
2023-02-07T07:40:01.689Z,0.28
2023-02-07T07:42:29.124Z,0.36
2023-02-07T07:45:16.800Z,0.43
2023-02-07T07:47:44.173Z,0.59
2023-02-07T07:50:12.524Z,0.56
2023-02-07T07:52:40.156Z,0.70
2023-02-07T07:55:07.942Z,0.75
2023-02-07T07:57:35.530Z,0.86
2023-02-07T08:00:03.943Z,0.89
2023-02-07T08:02:41.627Z,1.11
2023-02-07T08:05:12.511Z,1.11
2023-02-07T08:07:41.202Z,1.22
2023-02-07T08:10:08.795Z,1.13
2023-02-07T08:12:36.104Z,1.22
2023-02-07T08:15:03.752Z,1.26
2023-02-07T08:17:31.378Z,1.37
2023-02-07T08:19:58.705Z,1.58
2023-02-07T08:22:28.881Z,1.54
2023-02-07T08:24:56.331Z,1.62
2023-02-07T08:27:23.804Z,1.66
2023-02-07T08:29:51.363Z,1.81
2023-02-07T08:32:18.666Z,1.87
2023-02-07T08:34:46.224Z,2.05
2023-02-07T08:37:13.705Z,3.36
2023-02-07T08:39:41.220Z,4.84
2023-02-07T08:42:09.800Z,5.86
2023-02-07T08:44:37.738Z,7.25
2023-02-07T08:47:08.332Z,7.75
2023-02-07T08:49:35.997Z,8.11
2023-02-07T08:52:03.591Z,7.85
2023-02-07T08:54:31.177Z,8.49
2023-02-07T08:56:58.546Z,8.81
2023-02-07T08:59:26.184Z,8.05
2023-02-07T09:01:53.975Z,7.58
2023-02-07T09:04:21.538Z,7.71
2023-02-07T09:06:49.141Z,8.25
2023-02-07T09:09:19.754Z,7.22
2023-02-07T09:11:50.118Z,7.20
2023-02-07T09:14:17.639Z,6.51
2023-02-07T09:16:45.276Z,5.72
2023-02-07T09:19:12.843Z,5.31
2023-02-07T09:21:40.262Z,4.81
2023-02-07T09:24:08.002Z,4.65
2023-02-07T09:26:35.876Z,4.69
2023-02-07T09:29:03.290Z,4.74
2023-02-07T09:31:31.175Z,4.47
2023-02-07T09:34:00.146Z,4.60
2023-02-07T09:36:29.280Z,4.42
2023-02-07T09:38:57.145Z,4.34
2023-02-07T09:41:50.025Z,4.18
2023-02-07T09:44:23.960Z,4.22
2023-02-07T09:46:55.488Z,4.42
2023-02-07T09:49:38.285Z,4.15
2023-02-07T09:52:12.104Z,3.95
2023-02-07T09:54:43.905Z,3.95
2023-02-07T09:57:24.736Z,3.96
2023-02-07T09:59:58.345Z,4.06
2023-02-07T10:02:36.115Z,4.14
2023-02-07T10:05:13.722Z,4.21
2023-02-07T10:07:41.076Z,4.24
2023-02-07T10:10:23.902Z,4.21
2023-02-07T10:13:16.722Z,4.15
2023-02-07T10:16:01.333Z,4.32
2023-02-07T10:18:37.799Z,4.47
2023-02-07T10:21:14.582Z,4.65
2023-02-07T10:24:21.673Z,4.53
2023-02-07T10:27:29.654Z,4.53
2023-02-07T10:30:06.343Z,4.54
2023-02-07T10:32:37.668Z,4.51
2023-02-07T10:35:22.043Z,4.72
2023-02-07T10:37:54.918Z,4.64
2023-02-07T10:40:40.946Z,4.87
2023-02-07T10:43:25.445Z,4.81
2023-02-07T10:46:04.498Z,4.82
2023-02-07T10:48:33.552Z,4.85
2023-02-07T10:51:03.639Z,5.05
2023-02-07T10:54:00.680Z,4.81
2023-02-07T10:56:29.236Z,4.89
2023-02-07T10:58:58.333Z,5.15
2023-02-07T11:01:31.949Z,4.99
2023-02-07T11:03:59.871Z,5.11
2023-02-07T11:06:36.213Z,4.94
2023-02-07T11:09:10.859Z,5.08
2023-02-07T11:11:40.622Z,5.14
2023-02-07T11:14:09.052Z,5.26
2023-02-07T11:16:36.430Z,5.13
2023-02-07T11:19:40.113Z,5.06
2023-02-07T11:22:17.667Z,5.16
2023-02-07T11:24:47.250Z,5.30
2023-02-07T11:27:17.440Z,5.22
2023-02-07T11:29:52.076Z,5.33
2023-02-07T11:32:20.286Z,5.28
2023-02-07T11:35:02.417Z,5.30
2023-02-07T11:37:32.489Z,5.22
2023-02-07T11:40:21.243Z,5.34
2023-02-07T11:43:00.941Z,5.57
2023-02-07T11:45:29.298Z,5.47
2023-02-07T11:47:57.669Z,5.35
2023-02-07T11:50:30.767Z,5.14
2023-02-07T11:53:00.738Z,5.25
2023-02-07T11:55:37.085Z,5.32
2023-02-07T11:58:10.420Z,5.41
2023-02-07T12:00:39.030Z,5.38
2023-02-07T12:03:16.852Z,5.40
2023-02-07T12:05:50.147Z,5.42
2023-02-07T12:08:22.815Z,5.57
2023-02-07T12:10:55.981Z,5.42
2023-02-07T12:13:29.112Z,5.46
2023-02-07T12:16:10.174Z,5.57
2023-02-07T12:18:44.432Z,5.62
2023-02-07T12:21:28.458Z,5.67
2023-02-07T12:24:00.974Z,5.84
2023-02-07T12:27:06.703Z,5.87
2023-02-07T12:30:01.749Z,5.52
2023-02-07T12:32:35.347Z,5.56
2023-02-07T12:35:22.654Z,5.91
2023-02-07T12:37:53.683Z,5.96
2023-02-07T12:40:54.325Z,6.00
2023-02-07T12:43:24.537Z,5.85
2023-02-07T12:46:14.617Z,5.88
2023-02-07T12:48:52.871Z,5.80
2023-02-07T12:51:37.374Z,5.78
2023-02-07T12:54:39.532Z,5.89
2023-02-07T12:57:15.691Z,5.73
2023-02-07T13:00:20.282Z,5.78
2023-02-07T13:02:56.780Z,5.81
2023-02-07T13:05:36.194Z,5.79
2023-02-07T13:08:24.943Z,5.77
2023-02-07T13:11:23.149Z,5.95
2023-02-07T13:14:05.725Z,5.85
2023-02-07T13:16:58.215Z,5.89
2023-02-07T13:19:58.093Z,5.72
2023-02-07T13:22:46.407Z,5.78
2023-02-07T13:25:21.779Z,5.96
2023-02-07T13:27:52.560Z,5.92
2023-02-07T13:30:21.425Z,6.10
2023-02-07T13:32:50.035Z,5.93
2023-02-07T13:35:27.838Z,5.82
2023-02-07T13:38:25.381Z,5.94
2023-02-07T13:41:04.355Z,5.89
2023-02-07T13:43:54.034Z,6.12
2023-02-07T13:46:40.278Z,5.95
2023-02-07T13:49:29.755Z,5.80
2023-02-07T13:52:27.924Z,5.92
2023-02-07T13:55:13.904Z,6.02
2023-02-07T13:58:02.516Z,6.02
2023-02-07T14:00:32.789Z,6.09
2023-02-07T14:03:06.534Z,6.05
2023-02-07T14:05:38.951Z,6.06
2023-02-07T14:08:25.055Z,6.02
2023-02-07T14:10:57.082Z,5.90
2023-02-07T14:13:27.280Z,5.84
2023-02-07T14:15:54.624Z,5.72
2023-02-07T14:18:47.086Z,6.00
2023-02-07T14:21:21.377Z,6.03
2023-02-07T14:24:16.990Z,5.99
2023-02-07T14:27:01.593Z,5.92
2023-02-07T14:29:28.852Z,5.94
2023-02-07T14:32:21.949Z,6.12
2023-02-07T14:35:17.063Z,6.19
2023-02-07T14:37:56.601Z,5.97
2023-02-07T14:40:35.264Z,5.95
2023-02-07T14:43:15.690Z,6.10
2023-02-07T14:46:02.976Z,6.11
2023-02-07T14:49:04.002Z,6.06
2023-02-07T14:51:49.416Z,6.08
2023-02-07T14:54:23.196Z,5.93
2023-02-07T14:57:18.440Z,5.87
2023-02-07T15:00:04.897Z,6.01
2023-02-07T15:02:39.505Z,5.88
2023-02-07T15:05:18.916Z,5.95
2023-02-07T15:07:47.736Z,5.99
2023-02-07T15:10:26.514Z,5.98
2023-02-07T15:12:58.458Z,5.83
2023-02-07T15:15:46.225Z,5.69
2023-02-07T15:18:20.805Z,5.86
2023-02-07T15:20:58.911Z,5.92
2023-02-07T15:23:31.389Z,5.91
2023-02-07T15:26:05.782Z,6.02
2023-02-07T15:28:33.622Z,6.05
2023-02-07T15:31:14.783Z,6.01
2023-02-07T15:33:47.875Z,5.90
2023-02-07T15:36:47.378Z,5.86
2023-02-07T15:39:25.546Z,5.85
2023-02-07T15:41:58.793Z,5.88
2023-02-07T15:44:29.037Z,5.70
2023-02-07T15:46:57.856Z,5.77
2023-02-07T15:49:39.060Z,5.71
2023-02-07T15:52:28.232Z,5.80
2023-02-07T15:55:02.884Z,5.75
2023-02-07T15:57:43.046Z,5.63
2023-02-07T16:00:27.803Z,5.58
2023-02-07T16:03:01.697Z,5.80
2023-02-07T16:05:37.617Z,5.73
2023-02-07T16:08:33.340Z,5.60
2023-02-07T16:11:33.401Z,5.59
2023-02-07T16:14:03.949Z,5.56
2023-02-07T16:16:47.422Z,5.42
2023-02-07T16:19:14.759Z,5.39
2023-02-07T16:21:50.407Z,5.41
2023-02-07T16:24:22.041Z,5.37
2023-02-07T16:26:50.842Z,5.22
2023-02-07T16:29:21.483Z,5.11
2023-02-07T16:31:49.767Z,5.00
2023-02-07T16:34:19.088Z,4.97
2023-02-07T16:36:52.556Z,4.92
2023-02-07T16:39:20.453Z,4.87
2023-02-07T16:41:51.121Z,4.84
2023-02-07T16:44:22.887Z,4.76
2023-02-07T16:46:51.225Z,4.72
2023-02-07T16:49:22.393Z,4.67
2023-02-07T16:51:50.391Z,4.69
2023-02-07T16:54:17.970Z,4.69
2023-02-07T16:56:47.034Z,4.63
2023-02-07T16:59:18.204Z,4.53
2023-02-07T17:01:46.666Z,4.50
2023-02-07T17:04:14.195Z,4.40
2023-02-07T17:06:43.143Z,4.40
2023-02-07T17:09:24.055Z,4.35
2023-02-07T17:11:53.240Z,4.47
2023-02-07T17:14:21.349Z,4.46
2023-02-07T17:16:48.789Z,4.46
2023-02-07T17:19:18.638Z,4.40
2023-02-07T17:21:47.984Z,4.43
2023-02-07T17:24:15.768Z,4.46
2023-02-07T17:26:46.321Z,4.41
2023-02-07T17:29:15.241Z,4.40
2023-02-07T17:31:43.561Z,4.44
2023-02-07T17:34:11.385Z,4.46
2023-02-07T17:36:43.222Z,4.45
2023-02-07T17:39:13.520Z,4.40
2023-02-07T17:41:40.859Z,4.32
2023-02-07T17:44:08.586Z,4.41
2023-02-07T17:46:36.382Z,4.49
2023-02-07T17:49:03.873Z,4.38
2023-02-07T17:51:31.204Z,4.37
2023-02-07T17:53:58.614Z,4.38
2023-02-07T17:56:31.126Z,4.35
2023-02-07T17:59:02.313Z,4.39
2023-02-07T18:01:31.281Z,4.24
2023-02-07T18:03:59.105Z,4.06
2023-02-07T18:06:28.854Z,4.03
2023-02-07T18:08:58.746Z,3.90
2023-02-07T18:11:27.690Z,3.92
2023-02-07T18:13:57.127Z,3.78
2023-02-07T18:16:26.716Z,3.76
2023-02-07T18:18:56.226Z,3.69
2023-02-07T18:21:26.016Z,3.65
2023-02-07T18:23:53.573Z,3.65
2023-02-07T18:26:21.807Z,3.50
2023-02-07T18:28:49.622Z,3.57
2023-02-07T18:31:20.282Z,3.64
2023-02-07T18:33:48.383Z,3.64
2023-02-07T18:36:16.928Z,3.47
2023-02-07T18:38:46.461Z,3.49
2023-02-07T18:41:20.632Z,3.43
2023-02-07T18:43:49.576Z,3.27
2023-02-07T18:46:19.482Z,3.27
2023-02-07T18:48:51.210Z,3.29
2023-02-07T18:51:19.444Z,3.29
2023-02-07T18:53:47.592Z,3.34
2023-02-07T18:56:18.199Z,3.30
2023-02-07T18:58:46.844Z,3.21
2023-02-07T19:01:20.106Z,3.06
2023-02-07T19:03:51.484Z,3.08
2023-02-07T19:06:18.837Z,3.11
2023-02-07T19:08:46.192Z,3.02
2023-02-07T19:11:13.653Z,3.04
2023-02-07T19:13:41.040Z,2.95
2023-02-07T19:16:12.340Z,2.97
2023-02-07T19:18:40.475Z,2.90
2023-02-07T19:21:13.386Z,3.10
2023-02-07T19:23:41.458Z,3.09
2023-02-07T19:26:09.982Z,2.94
2023-02-07T19:28:38.297Z,2.87
2023-02-07T19:31:17.571Z,2.86
2023-02-07T19:33:48.085Z,2.82
2023-02-07T19:36:17.266Z,2.76
2023-02-07T19:38:44.703Z,2.75
2023-02-07T19:41:12.172Z,2.82
2023-02-07T19:43:39.710Z,2.76
2023-02-07T19:46:07.328Z,2.61
2023-02-07T19:48:34.976Z,2.64
2023-02-07T19:51:05.115Z,2.66
2023-02-07T19:53:33.519Z,2.72
2023-02-07T19:56:04.751Z,2.55
2023-02-07T19:58:33.583Z,2.47
2023-02-07T20:01:01.617Z,2.29
2023-02-07T20:03:29.416Z,2.43
2023-02-07T20:06:00.732Z,2.21
2023-02-07T20:08:28.862Z,2.11
2023-02-07T20:10:56.236Z,2.16
2023-02-07T20:13:23.664Z,2.16
2023-02-07T20:15:52.737Z,2.41
2023-02-07T20:18:20.238Z,2.42
2023-02-07T20:20:48.353Z,2.46
2023-02-07T20:23:15.834Z,2.36
2023-02-07T20:25:43.361Z,2.36
2023-02-07T20:28:10.852Z,2.31
2023-02-07T20:30:45.110Z,2.57
2023-02-07T20:33:12.566Z,2.71
2023-02-07T20:35:40.238Z,2.58
2023-02-07T20:38:07.817Z,2.60
2023-02-07T20:40:35.308Z,2.59
2023-02-07T20:43:02.797Z,2.65
2023-02-07T20:45:30.343Z,2.59
2023-02-07T20:47:57.707Z,2.50
2023-02-07T20:50:25.168Z,2.63
2023-02-07T20:52:52.613Z,2.57
2023-02-07T20:55:20.036Z,2.62
2023-02-07T20:57:47.471Z,2.56
2023-02-07T21:00:15.228Z,2.60
2023-02-07T21:02:42.781Z,2.53
2023-02-07T21:05:10.145Z,2.38
2023-02-07T21:07:37.547Z,2.33
2023-02-07T21:10:05.507Z,2.27
2023-02-07T21:12:33.037Z,2.23
2023-02-07T21:15:00.458Z,2.19
2023-02-07T21:17:27.833Z,2.01
2023-02-07T21:19:55.269Z,1.83
2023-02-07T21:22:23.987Z,1.42
2023-02-07T21:24:51.670Z,1.63
2023-02-07T21:27:19.110Z,1.62
2023-02-07T21:29:46.497Z,1.63
2023-02-07T21:32:13.872Z,1.53
2023-02-07T21:34:41.263Z,1.73
2023-02-07T21:37:08.851Z,1.52
2023-02-07T21:39:38.300Z,1.61
2023-02-07T21:42:05.826Z,1.81
2023-02-07T21:44:33.205Z,1.99
2023-02-07T21:47:00.632Z,1.87
2023-02-07T21:49:27.946Z,1.81
2023-02-07T21:51:55.355Z,1.80
2023-02-07T21:54:22.804Z,1.36
2023-02-07T21:56:51.145Z,1.50
2023-02-07T21:59:20.793Z,1.39
2023-02-07T22:01:49.354Z,1.35
2023-02-07T22:04:17.836Z,1.47
2023-02-07T22:06:47.242Z,1.39
2023-02-07T22:09:17.489Z,1.35
2023-02-07T22:11:45.286Z,1.14
2023-02-07T22:14:13.747Z,1.12
2023-02-07T22:16:41.471Z,1.07
2023-02-07T22:19:12.986Z,0.95
2023-02-07T22:21:40.599Z,0.88
2023-02-07T22:24:09.786Z,1.02
2023-02-07T22:26:37.214Z,0.88
2023-02-07T22:29:06.753Z,0.81
2023-02-07T22:31:36.999Z,0.84
2023-02-07T22:34:07.847Z,0.97
2023-02-07T22:36:38.011Z,0.95
2023-02-07T22:39:07.877Z,0.95
2023-02-07T22:41:36.033Z,0.80
2023-02-07T22:44:03.726Z,0.78
2023-02-07T22:46:31.444Z,0.76
2023-02-07T22:48:59.090Z,0.73
2023-02-07T22:51:28.944Z,0.79
2023-02-07T22:53:58.581Z,0.65
2023-02-07T22:56:27.231Z,0.66
2023-02-07T22:58:55.535Z,0.61
2023-02-07T23:01:26.673Z,0.64
2023-02-07T23:03:55.002Z,0.48
2023-02-07T23:06:23.638Z,0.52
2023-02-07T23:08:52.206Z,0.27
2023-02-07T23:11:21.858Z,0.38
2023-02-07T23:13:50.660Z,0.17
2023-02-07T23:16:21.521Z,0.34
2023-02-07T23:18:51.794Z,0.28
2023-02-07T23:21:22.000Z,0.49
2023-02-07T23:23:49.925Z,0.32
2023-02-07T23:26:21.339Z,0.30
2023-02-07T23:28:49.177Z,0.43
2023-02-07T23:31:19.410Z,0.57
2023-02-07T23:33:47.112Z,0.59
2023-02-07T23:36:17.348Z,0.34
2023-02-07T23:38:48.617Z,0.17
2023-02-07T23:41:16.069Z,0.33
2023-02-07T23:43:43.762Z,0.19
2023-02-07T23:46:13.050Z,0.16
2023-02-07T23:48:40.367Z,0.20
2023-02-07T23:51:07.704Z,0.02
2023-02-07T23:53:35.284Z,0.13
2023-02-07T23:56:04.226Z,-0.04
2023-02-07T23:58:32.599Z,-0.02
